Portada
METAR-TAF:

METAR-TAF

Aeroports :

West Memphis, Arkansas, Estats Units d'Amèrica

latitud: 35-08N, longitud: 090-14W, altitud: 65 m

Observació

L'informe es va fer fa 50 minuts, a les 11:53 UTC
Vent calma
Temperatura 19°C
Humitat 73%
Pressió 1021 hPa
Visibilitat: 16.1 km
Cel clar

METAR: KAWM 301153Z AUTO 00000KT 10SM CLR 19/14 A3015 RMK AO2 SLP204 T01940144 10200 20178 53013

Hora: 07:43 (12:43 UTC)


TAF: manca

Observacions i pronòstics meteorològics de més de 4000 aeroports (METAR i TAF).

Les estacions disponibles són els punts grocs i vermells al mapa.

Posi el ratolí al punt desitjat per veure el nom de l'estació.

Feu clic per veure les observacions i els pronòstics meteorològics.

Per canviar el mapa: feu clic els botons verds amb una creu de color negre per apropar; al botó verd amb un guió per allunyar la imatge; o en les fletxes verdes per a mapes adjacents.


METAR-TAF: